Latest Weather Observations for Bedout Island

IDW60801

Issued at 5:02 pm WST Sunday 24 May 2015 (issued every 30 minutes, with the page automatically refreshed every 10 minutes)

About weather observations | Map of weather stations | Latest weather observations for WA | Other Formats
Station Details ID: 004100 Name: BEDOUT ISLAND Lat: -19.59 Lon: 119.10 Height: 8.6 m
Data from the previous 72 hours. | See also: Recent months for locations in Western Australia
Date/Time
WST
Temp
°C
App
Temp
°C
Dew
Point
Rel
Hum
%
Delta-T
°C
Wind Press
QNH
hPa
Press
MSL
hPa
Rain
since 9 am
mm
Dir
 
Spd
km/h
Gust
km/h
Spd
kts
Gust
kts
24/05:00pm 21.4 17.9 17.4 78 2.5 SE 32 35 17 19 1014.5 - -
24/04:30pm 21.5 18.6 17.9 80 2.2 SE 30 33 16 18 1014.2 - -
24/04:00pm 21.7 18.2 17.5 77 2.6 SE 32 37 17 20 1013.8 - -
24/03:30pm 21.8 18.0 16.7 73 3.1 SE 32 35 17 19 1013.7 - -
24/03:00pm 21.6 18.4 17.2 76 2.7 SE 30 35 16 19 1014.0 1013.9 -
24/02:30pm 21.2 17.4 17.2 78 2.4 SE 33 39 18 21 1013.9 - -
24/02:00pm 21.1 18.4 17.5 80 2.2 SSE 28 33 15 18 1014.6 - -
24/01:30pm 21.0 19.2 17.0 78 2.4 SSE 22 26 12 14 1014.9 - -
24/01:00pm 21.3 19.9 17.1 77 2.6 SSE 20 26 11 14 1015.2 - -
24/12:30pm 21.4 18.9 17.2 77 2.6 SSE 26 32 14 17 1015.0 - -
24/12:00pm 21.1 19.8 16.9 77 2.6 SSE 19 22 10 12 1016.4 1016.3 -
24/11:30am 22.0 20.5 16.7 72 3.2 E 20 28 11 15 1017.2 - -
24/11:00am 23.1 19.5 17.1 69 3.7 ESE 32 37 17 20 1015.8 - -
24/10:30am 22.8 19.4 17.7 73 3.2 SE 32 35 17 19 1015.7 - -
24/10:00am 22.5 19.7 18.1 76 2.7 SE 30 33 16 18 1016.2 - -
24/09:30am 22.3 19.3 17.7 75 2.9 SE 30 32 16 17 1015.9 - -
24/09:00am 22.4 18.9 18.0 76 2.7 SE 33 37 18 20 1015.6 1015.5 -
24/08:30am 22.1 19.2 17.9 77 2.6 SE 30 33 16 18 1015.6 - -
24/08:00am 22.2 19.3 18.0 77 2.6 SSE 30 33 16 18 1015.3 - -
24/07:30am 22.6 18.3 17.7 74 3.0 SE 37 43 20 23 1014.8 - -
24/07:00am 22.5 19.1 18.1 76 2.7 SSE 33 37 18 20 1014.7 - -
24/06:30am 22.4 19.2 18.2 77 2.6 SSE 32 37 17 20 1014.7 - -
24/06:00am 22.8 18.5 17.9 74 3.1 SSE 37 41 20 22 1014.1 1014.0 -
24/05:30am 22.9 19.5 18.2 75 2.9 SE 33 39 18 21 1013.9 - -
24/05:00am 22.8 19.8 18.6 77 2.6 SSE 32 35 17 19 1014.2 - -
24/04:30am 23.3 20.5 19.0 77 2.7 SE 32 35 17 19 1014.0 - -
24/04:00am 23.6 21.0 19.5 78 2.6 SE 32 35 17 19 1013.5 - -
24/03:30am 23.7 21.2 19.8 79 2.5 SE 32 35 17 19 1013.5 - -
24/03:00am 23.2 21.7 19.4 79 2.4 SE 26 33 14 18 1013.7 1013.6 -
24/02:30am 23.6 22.3 19.1 76 2.9 ESE 24 30 13 16 1014.0 - -
24/02:00am 23.8 22.8 18.9 74 3.1 ESE 22 28 12 15 1014.2 - -
24/01:30am 24.0 22.3 18.9 73 3.2 SE 26 30 14 16 1014.0 - -
24/01:00am 23.9 22.0 18.5 72 3.4 SE 26 30 14 16 1014.0 - -
24/12:30am 23.8 22.2 18.4 72 3.4 SE 24 30 13 16 1014.1 - -
24/12:00am 23.9 22.0 18.5 72 3.4 SSE 26 28 14 15 1014.3 1014.2 -
 
Date/Time
WST
Temp
°C
App
Temp
°C
Dew
Point
Rel
Hum
%
Delta-T
°C
Wind Press
QNH
hPa
Press
MSL
hPa
Rain
since 9 am
mm
Dir
 
Spd
km/h
Gust
km/h
Spd
kts
Gust
kts
23/11:30pm 23.8 21.8 18.2 71 3.5 SSE 26 30 14 16 1014.5 - -
23/11:00pm 23.9 22.5 19.6 77 2.8 SSE 26 32 14 17 1014.7 - -
23/10:30pm 24.0 24.1 21.9 88 1.4 S 24 28 13 15 1015.0 - -
23/10:00pm 23.6 27.8 21.7 89 1.3 S 2 6 1 3 1015.1 - -
23/09:30pm 23.4 27.3 21.8 91 1.1 SSW 4 6 2 3 1015.4 - -
23/09:00pm 23.8 28.6 22.2 91 1.1 CALM 0 6 0 3 1014.9 1014.8 -
23/08:30pm 24.8 30.1 23.0 90 1.2 CALM 0 2 0 1 1015.1 - -
23/08:00pm 24.9 30.2 23.0 89 1.3 CALM 0 0 0 0 1014.9 - -
23/07:30pm 24.7 29.8 22.6 88 1.4 CALM 0 2 0 1 1014.8 - -
23/07:00pm 24.7 29.6 22.4 87 1.5 CALM 0 4 0 2 1014.5 - -
23/06:30pm 25.0 29.6 22.5 86 1.7 NE 2 9 1 5 1014.5 - -
23/06:00pm 25.1 28.8 22.2 84 1.9 NE 6 7 3 4 1014.1 1014.0 -
23/05:30pm 25.3 29.1 22.4 84 1.9 NE 6 7 3 4 1014.2 - -
23/05:00pm 25.5 28.7 22.4 83 2.1 NE 9 11 5 6 1013.8 - -
23/04:30pm 25.3 27.9 22.6 85 1.8 NE 13 15 7 8 1013.6 - -
23/04:00pm 25.8 28.5 22.9 84 2.0 NE 13 17 7 9 1013.5 - -
23/03:30pm 25.9 28.4 22.4 81 2.4 ENE 13 15 7 8 1013.4 - -
23/03:00pm 26.0 28.1 21.7 77 2.9 ENE 13 15 7 8 1013.4 1013.3 -
23/02:30pm 26.4 28.0 21.4 74 3.3 E 15 15 8 8 1013.4 - -
23/02:00pm 26.7 28.3 21.5 73 3.5 E 15 17 8 9 1013.5 - -
23/01:30pm 26.5 27.8 20.8 71 3.8 E 15 17 8 9 1013.7 - -
23/01:00pm 26.8 28.2 20.4 68 4.2 E 13 15 7 8 1014.3 - -
23/12:30pm 26.7 27.8 20.5 69 4.1 E 15 20 8 11 1014.7 - -
23/12:00pm 26.3 26.3 20.2 69 4.0 ENE 20 24 11 13 1014.7 1014.6 -
23/11:30am 26.9 26.3 19.8 65 4.6 ENE 22 24 12 13 1014.9 - -
23/11:00am 26.9 26.1 19.3 63 4.9 E 22 24 12 13 1015.4 - -
23/10:30am 26.7 25.8 19.8 66 4.5 E 24 28 13 15 1015.6 - -
23/10:00am 26.3 25.7 19.7 67 4.3 E 22 26 12 14 1015.6 - -
23/09:30am 25.5 24.3 19.2 68 4.0 ESE 24 26 13 14 1016.1 - -
23/09:00am 26.2 24.8 19.6 67 4.3 E 26 28 14 15 1015.9 1015.8 -
23/08:30am 25.4 25.8 20.6 75 3.1 ESE 19 20 10 11 1016.0 - -
23/08:00am 24.6 25.2 20.3 77 2.8 ESE 17 20 9 11 1015.8 - -
23/07:30am 24.1 24.1 19.8 77 2.8 ESE 19 20 10 11 1015.6 - -
23/07:00am 22.9 22.4 18.7 77 2.7 ESE 19 20 10 11 1015.3 - -
23/06:30am 22.7 21.9 18.0 75 2.9 SE 19 20 10 11 1015.0 - -
23/06:00am 23.0 22.2 18.1 74 3.1 SE 19 20 10 11 1015.1 1015.0 -
23/05:30am 23.1 22.2 18.2 74 3.1 SE 20 22 11 12 1014.8 - -
23/05:00am 23.4 22.8 18.5 74 3.1 SSE 19 22 10 12 1014.9 - -
23/04:30am 24.2 23.9 19.1 73 3.3 ESE 19 22 10 12 1014.7 - -
23/04:00am 24.3 22.9 18.7 71 3.6 ESE 24 28 13 15 1014.7 - -
23/03:30am 24.5 22.8 18.2 68 4.0 ESE 24 28 13 15 1014.6 - -
23/03:00am 24.7 23.7 17.9 66 4.3 SE 20 24 11 13 1014.7 1014.6 -
23/02:30am 24.7 24.1 18.4 68 4.0 SE 19 20 10 11 1014.8 - -
23/02:00am 24.2 24.0 18.4 70 3.7 SE 17 20 9 11 1014.9 - -
23/01:30am 24.1 23.9 18.5 71 3.5 S 17 20 9 11 1015.0 - -
23/01:00am 23.6 23.6 17.3 67 3.9 S 13 15 7 8 1015.1 - -
23/12:30am 23.7 23.6 17.9 70 3.6 S 15 17 8 9 1015.3 - -
23/12:00am 23.5 23.3 18.4 73 3.2 S 17 20 9 11 1015.4 1015.3 -
 
Date/Time
WST
Temp
°C
App
Temp
°C
Dew
Point
Rel
Hum
%
Delta-T
°C
Wind Press
QNH
hPa
Press
MSL
hPa
Rain
since 9 am
mm
Dir
 
Spd
km/h
Gust
km/h
Spd
kts
Gust
kts
22/11:30pm 23.4 23.2 19.8 80 2.3 S 20 24 11 13 1015.6 - -
22/11:00pm 23.8 24.0 20.5 82 2.1 S 20 22 11 12 1015.7 - -
22/10:30pm 23.9 25.1 21.4 86 1.6 SSW 17 20 9 11 1015.8 - -
22/10:00pm 23.4 24.8 21.1 87 1.5 SSW 15 17 8 9 1015.8 - -
22/09:30pm 23.0 24.5 20.5 86 1.6 S 13 15 7 8 1015.7 - -
22/09:00pm 23.1 24.8 20.2 84 1.9 S 11 11 6 6 1015.9 1015.8 -
22/08:30pm 23.2 25.6 20.0 82 2.1 S 7 9 4 5 1016.1 - -
22/08:00pm 23.4 25.7 19.8 80 2.3 S 7 9 4 5 1015.8 - -
22/07:30pm 23.5 25.6 19.4 78 2.6 ENE 7 9 4 5 1015.6 - -
22/07:00pm 24.2 27.3 19.5 75 3.0 ENE 2 6 1 3 1015.4 - -
22/06:30pm 24.4 26.4 19.2 73 3.3 ENE 7 7 4 4 1015.2 - -
22/06:00pm 24.8 26.9 19.4 72 3.5 ENE 7 9 4 5 1014.9 1014.8 -
22/05:30pm 24.9 26.6 19.3 71 3.6 ENE 9 9 5 5 1014.8 - -
22/05:00pm 25.2 25.6 19.1 69 3.9 ENE 15 17 8 9 1014.5 - -
22/04:30pm 25.3 25.2 18.7 67 4.2 ENE 17 19 9 10 1014.2 - -
22/04:00pm 25.7 25.3 18.9 66 4.3 ENE 19 20 10 11 1014.1 - -
22/03:30pm 25.9 25.2 18.6 64 4.6 ENE 20 22 11 12 1014.1 - -
22/03:00pm 26.1 25.3 18.5 63 4.8 ENE 20 22 11 12 1014.3 1014.2 -
22/02:30pm 26.8 25.6 18.4 60 5.3 ENE 22 24 12 13 1014.4 - -
22/02:00pm 26.3 24.3 18.2 61 5.1 ENE 26 28 14 15 1014.4 - -
22/01:30pm 26.7 24.0 17.5 57 5.8 ENE 28 33 15 18 1014.4 - -
22/01:00pm 26.3 23.9 18.2 61 5.1 E 28 32 15 17 1015.0 - -
22/12:30pm 26.1 23.4 17.5 59 5.4 E 28 30 15 16 1015.6 - -
22/12:00pm 25.7 23.3 17.4 60 5.2 E 26 30 14 16 1016.3 1016.2 -
22/11:30am 26.6 24.3 17.7 58 5.6 E 26 32 14 17 1016.9 - -
22/11:00am 25.9 22.6 17.0 58 5.5 E 30 32 16 17 1017.0 - -
22/10:30am 25.6 21.8 17.3 60 5.2 E 33 39 18 21 1017.0 - -
22/10:00am 25.2 21.6 17.1 60 5.0 E 32 33 17 18 1017.6 - -
22/09:30am 25.3 22.4 17.0 60 5.1 ESE 28 30 15 16 1018.0 - -
22/09:00am 25.0 22.1 17.0 61 4.9 E 28 32 15 17 1017.8 1017.7 -
22/08:30am 24.5 21.7 17.2 63 4.5 E 28 32 15 17 1017.4 - -
22/08:00am 24.3 20.7 16.3 61 4.9 E 30 35 16 19 1017.3 - -
22/07:30am 24.3 20.3 16.8 63 4.6 E 33 37 18 20 1017.2 - -
22/07:00am 24.1 20.3 17.1 65 4.3 E 33 39 18 21 1016.8 - -
22/06:30am 24.2 19.8 16.7 63 4.6 E 35 39 19 21 1016.7 - -
22/06:00am 24.3 19.7 17.1 64 4.4 E 37 43 20 23 1016.5 1016.4 -
22/05:30am 24.5 20.5 17.7 66 4.2 E 35 43 19 23 1016.3 - -
22/05:00am 24.6 19.8 17.6 65 4.4 E 39 43 21 23 1016.0 - -
22/04:30am 24.5 19.6 17.2 63 4.5 E 39 44 21 24 1016.0 - -
22/04:00am 24.6 18.7 16.8 62 4.8 E 43 50 23 27 1015.8 - -
22/03:30am 24.6 19.7 17.3 64 4.5 E 39 44 21 24 1015.9 - -
22/03:00am 24.6 19.6 17.1 63 4.6 E 39 44 21 24 1016.0 1015.9 -
22/02:30am 24.4 19.4 17.1 63 4.5 E 39 44 21 24 1015.9 - -
22/02:00am 24.4 19.0 16.9 63 4.6 E 41 44 22 24 1016.1 - -
22/01:30am 24.4 19.2 16.6 61 4.8 E 39 46 21 25 1016.3 - -
22/01:00am 24.3 19.4 17.3 65 4.3 E 39 44 21 24 1016.8 - -
22/12:30am 24.2 18.9 17.2 65 4.3 E 41 48 22 26 1016.5 - -
22/12:00am 24.0 19.0 17.0 65 4.3 E 39 46 21 25 1016.8 1016.7 -
 
Date/Time
WST
Temp
°C
App
Temp
°C
Dew
Point
Rel
Hum
%
Delta-T
°C
Wind Press
QNH
hPa
Press
MSL
hPa
Rain
since 9 am
mm
Dir
 
Spd
km/h
Gust
km/h
Spd
kts
Gust
kts
21/11:30pm 23.8 18.7 16.8 65 4.3 E 39 44 21 24 1017.3 - -
21/11:00pm 23.6 18.2 16.1 62 4.6 ESE 39 44 21 24 1017.6 - -
21/10:30pm 23.6 17.9 15.1 59 5.1 ESE 39 44 21 24 1017.6 - -
21/10:00pm 23.5 16.6 14.5 57 5.3 ESE 44 50 24 27 1017.4 - -
21/09:30pm 23.7 17.2 15.5 60 4.9 ESE 44 54 24 29 1017.3 - -
21/09:00pm 24.0 16.8 14.7 56 5.5 ESE 46 52 25 28 1017.1 1017.0 -
21/08:30pm 24.7 18.5 14.8 54 5.9 ESE 41 46 22 25 1017.0 - -
21/08:00pm 24.9 19.1 15.0 54 5.9 ESE 39 46 21 25 1016.8 - -
21/07:30pm 25.3 21.6 15.9 56 5.7 ESE 30 35 16 19 1016.8 - -
21/07:00pm 24.9 23.1 17.9 65 4.4 ESE 24 28 13 15 1016.8 - -
21/06:30pm 24.3 22.6 18.9 72 3.4 SE 26 30 14 16 1016.3 - -
21/06:00pm 24.0 22.8 19.3 75 3.0 SSE 24 30 13 16 1016.3 1016.2 -
21/05:30pm 24.8 25.2 19.8 74 3.2 E 17 20 9 11 1015.7 - -

Other Formats:

Comma delimited format used in spreadsheet applications
http://www.bom.gov.au/fwo/IDW60801/IDW60801.94310.axf

JavaScript Object Notation format (JSON) in row-major order
http://www.bom.gov.au/fwo/IDW60801/IDW60801.94310.json